Time;durP1;ratioP1;P1;durP2;ratioP2;P2;SDS_P1;SDS_P2;PMS_P1;PMS_P2;Temp;Humidity;BMP_temperature;BMP_pressure;BME280_temperature;BME280_humidity;BME280_pressure;Samples;Min_cycle;Max_cycle;Signal;HPM_P1;HPM_P2
2024/01/12 00:27:24;;;;;;;7.70;4.37;;;-2.50;99.90;;;;;;5742110;24;21101;-84
2024/01/12 01:28:55;;;;;;;5.13;2.80;;;-3.20;99.90;;;;;;5801218;24;20701;-87
2024/01/12 01:59:14;;;;;;;4.47;3.07;;;-3.50;99.90;;;;;;5894619;24;20186;-83
2024/01/12 02:29:50;;;;;;;4.43;2.60;;;-3.90;99.90;;;;;;5952859;23;20637;-83
2024/01/12 03:00:12;;;;;;;3.00;1.80;;;-4.30;99.90;;;;;;5890743;23;20587;-84
2024/01/12 03:25:42;;;;;;;3.07;2.00;;;-4.30;99.20;;;;;;5970144;23;20175;-85
2024/01/12 03:45:43;;;;;;;5.40;2.10;;;-5.10;98.30;;;;;;5819859;24;20550;-82
2024/01/12 04:11:28;;;;;;;4.17;1.80;;;-5.70;99.90;;;;;;5774456;24;20217;-84
2024/01/12 04:36:49;;;;;;;2.37;1.90;;;-5.10;99.60;;;;;;5956468;24;20743;-83
2024/01/12 05:12:07;;;;;;;5.30;1.90;;;-4.60;82.30;;;;;;5865332;24;20192;-83
2024/01/12 05:37:38;;;;;;;4.10;1.83;;;-4.60;81.10;;;;;;5838642;24;20271;-83
2024/01/12 05:58:04;;;;;;;2.93;2.30;;;-4.40;80.80;;;;;;5795458;24;20532;-83
2024/01/12 06:22:56;;;;;;;4.07;2.80;;;-4.60;80.80;;;;;;5722980;24;20290;-83
2024/01/12 06:43:27;;;;;;;12.83;3.00;;;-4.60;82.20;;;;;;5731189;24;20174;-81
2024/01/12 07:03:47;;;;;;;3.80;3.23;;;-4.60;84.50;;;;;;5671229;24;20233;-84
2024/01/12 07:44:42;;;;;;;6.77;4.03;;;-4.30;86.70;;;;;;5635222;25;20686;-83
2024/01/12 08:10:04;;;;;;;7.93;5.00;;;-3.70;84.20;;;;;;5647772;25;20367;-84
2024/01/12 08:30:18;;;;;;;9.13;5.73;;;-3.20;83.30;;;;;;5718121;24;20368;-85
2024/01/12 09:05:27;;;;;;;15.23;9.10;;;-2.60;81.80;;;;;;5612394;24;20444;-85
2024/01/12 09:31:03;;;;;;;18.07;12.37;;;-2.30;80.50;;;;;;5789416;24;20770;-86
2024/01/12 09:56:41;;;;;;;18.17;11.07;;;-2.00;79.60;;;;;;5813706;24;20179;-87
2024/01/12 10:27:05;;;;;;;11.97;7.43;;;-2.30;78.70;;;;;;6095641;23;20727;-82
2024/01/12 12:13:50;;;;;;;9.17;6.30;;;-0.80;77.50;;;;;;5880201;24;20172;-84
2024/01/12 13:34:29;;;;;;;10.77;5.93;;;-0.50;79.80;;;;;;5705331;24;20871;-83
2024/01/12 13:50:02;;;;;;;12.47;6.27;;;-0.40;81.90;;;;;;5842178;24;20507;-81
2024/01/12 14:15:07;;;;;;;10.90;6.30;;;-0.40;84.20;;;;;;5852478;24;20207;-81
2024/01/12 14:30:45;;;;;;;13.37;8.00;;;-0.20;87.90;;;;;;5744495;24;20671;-83
2024/01/12 15:16:38;;;;;;;23.47;13.77;;;-0.60;99.90;;;;;;5583108;25;20255;-82
2024/01/12 15:41:22;;;;;;;30.90;17.20;;;-0.50;99.90;;;;;;5723064;24;20692;-82
2024/01/12 16:02:16;;;;;;;33.03;17.20;;;-0.50;99.90;;;;;;5778311;24;20234;-88
2024/01/12 16:32:40;;;;;;;32.40;17.47;;;-0.20;99.90;;;;;;5798284;24;20608;-83
2024/01/12 16:58:07;;;;;;;30.67;18.77;;;-0.20;99.90;;;;;;5804412;24;20245;-84
2024/01/12 17:23:17;;;;;;;36.97;19.97;;;0.10;99.90;;;;;;5787348;24;20179;-84
2024/01/12 17:49:00;;;;;;;39.83;21.40;;;0.10;99.90;;;;;;5760232;24;20184;-83
2024/01/12 18:14:23;;;;;;;39.50;21.43;;;0.20;99.90;;;;;;5761320;24;20644;-84
2024/01/12 18:44:42;;;;;;;36.10;19.27;;;0.20;99.90;;;;;;5771798;24;20171;-86
2024/01/12 19:09:58;;;;;;;34.77;19.80;;;0.20;99.90;;;;;;5812162;24;20213;-85
2024/01/12 20:00:25;;;;;;;30.53;17.33;;;0.40;99.90;;;;;;5814834;24;20459;-88
2024/01/12 20:26:11;;;;;;;25.53;16.50;;;0.40;99.90;;;;;;6013469;23;20216;-84
2024/01/12 20:56:34;;;;;;;24.83;16.20;;;0.80;99.90;;;;;;5997091;23;20160;-84
2024/01/12 21:22:10;;;;;;;26.87;15.87;;;0.60;99.90;;;;;;5934688;24;20240;-90
2024/01/12 21:42:18;;;;;;;27.40;15.10;;;0.90;99.90;;;;;;5804327;24;20226;-84
2024/01/12 22:17:16;;;;;;;23.50;15.00;;;0.90;99.90;;;;;;5935875;23;20342;-90
2024/01/12 22:43:02;;;;;;;23.37;14.17;;;0.90;99.90;;;;;;5918130;23;20164;-85
2024/01/12 23:08:50;;;;;;;24.53;14.30;;;0.80;99.90;;;;;;5705599;24;20196;-83
